createdAt,value
2019-02-05T00:02:21.321Z,8.47
2019-02-05T00:04:52.529Z,7.80
2019-02-05T00:07:24.913Z,10.30
2019-02-05T00:09:56.045Z,8.90
2019-02-05T00:12:26.239Z,8.87
2019-02-05T00:14:58.081Z,8.77
2019-02-05T00:17:31.698Z,9.43
2019-02-05T00:20:02.725Z,10.23
2019-02-05T00:22:35.122Z,6.33
2019-02-05T00:25:07.606Z,8.57
2019-02-05T00:27:38.706Z,7.13
2019-02-05T00:30:11.110Z,7.97
2019-02-05T00:32:43.312Z,8.27
2019-02-05T00:35:14.868Z,9.97
2019-02-05T00:37:46.078Z,7.53
2019-02-05T00:40:18.089Z,7.23
2019-02-05T00:42:49.752Z,8.93
2019-02-05T00:45:23.082Z,9.20
2019-02-05T00:47:52.929Z,9.90
2019-02-05T00:50:24.159Z,7.70
2019-02-05T00:52:56.037Z,7.87
2019-02-05T00:55:27.094Z,7.60
2019-02-05T00:57:57.804Z,8.70
2019-02-05T01:00:30.073Z,7.37
2019-02-05T01:03:00.377Z,8.33
2019-02-05T01:05:32.024Z,10.53
2019-02-05T01:08:03.206Z,8.53
2019-02-05T01:10:35.041Z,9.07
2019-02-05T01:13:05.442Z,8.90
2019-02-05T01:15:35.340Z,8.33
2019-02-05T01:18:06.489Z,7.80
2019-02-05T01:20:36.300Z,10.27
2019-02-05T01:23:06.240Z,9.60
2019-02-05T01:25:36.171Z,9.70
2019-02-05T01:28:07.565Z,11.90
2019-02-05T01:30:37.461Z,10.23
2019-02-05T01:33:07.543Z,11.10
2019-02-05T01:35:37.733Z,10.33
2019-02-05T01:38:08.347Z,8.00
2019-02-05T01:40:39.459Z,6.23
2019-02-05T01:43:09.321Z,7.87
2019-02-05T01:45:39.150Z,9.70
2019-02-05T01:48:09.818Z,9.50
2019-02-05T01:50:40.383Z,5.97
2019-02-05T01:53:12.146Z,10.63
2019-02-05T01:55:41.429Z,12.63
2019-02-05T01:58:12.122Z,10.43
2019-02-05T02:00:43.778Z,7.17
2019-02-05T02:03:14.815Z,7.80
2019-02-05T02:05:46.038Z,9.07
2019-02-05T02:08:17.178Z,9.90
2019-02-05T02:10:48.245Z,9.57
2019-02-05T02:13:18.107Z,8.07
2019-02-05T02:15:49.126Z,11.07
2019-02-05T02:18:19.749Z,7.73
2019-02-05T02:20:51.450Z,10.33
2019-02-05T02:23:21.121Z,12.70
2019-02-05T02:25:51.898Z,11.47
2019-02-05T02:28:22.639Z,11.83
2019-02-05T02:30:54.832Z,14.73
2019-02-05T02:33:24.710Z,10.93
2019-02-05T02:35:57.832Z,13.97
2019-02-05T02:38:28.348Z,12.50
2019-02-05T02:40:58.518Z,12.10
2019-02-05T02:43:28.413Z,12.10
2019-02-05T02:45:59.364Z,9.93
2019-02-05T02:48:31.861Z,11.57
2019-02-05T02:51:03.524Z,10.27
2019-02-05T02:53:35.693Z,11.47
2019-02-05T02:56:06.389Z,10.80
2019-02-05T02:58:36.201Z,9.57
2019-02-05T03:01:08.582Z,8.83
2019-02-05T03:03:40.437Z,13.80
2019-02-05T03:06:14.404Z,11.47
2019-02-05T03:08:45.317Z,8.50
2019-02-05T03:11:16.477Z,11.20
2019-02-05T03:13:47.582Z,18.13
2019-02-05T03:16:19.380Z,11.17
2019-02-05T03:18:49.138Z,11.37
2019-02-05T03:21:19.846Z,10.57
2019-02-05T03:23:50.866Z,9.83
2019-02-05T03:26:21.550Z,12.50
2019-02-05T03:28:51.283Z,8.83
2019-02-05T03:31:21.366Z,10.20
2019-02-05T03:33:52.118Z,9.77
2019-02-05T03:36:22.800Z,9.43
2019-02-05T03:38:54.177Z,10.67
2019-02-05T03:41:24.988Z,10.80
2019-02-05T03:43:55.691Z,12.77
2019-02-05T03:46:27.279Z,9.17
2019-02-05T03:48:58.588Z,9.80
2019-02-05T03:51:31.250Z,11.70
2019-02-05T03:54:08.499Z,9.17
2019-02-05T03:56:56.026Z,8.37
2019-02-05T03:59:38.342Z,9.43
2019-02-05T04:02:24.077Z,10.80
2019-02-05T04:05:10.295Z,9.13
2019-02-05T04:07:50.483Z,12.20
2019-02-05T04:10:35.825Z,10.97
2019-02-05T04:13:29.665Z,11.73
2019-02-05T04:16:08.206Z,10.73
2019-02-05T04:18:40.554Z,13.30
2019-02-05T04:21:15.687Z,11.33
2019-02-05T04:23:50.830Z,12.50
2019-02-05T04:26:24.017Z,13.13
2019-02-05T04:28:59.159Z,11.40
2019-02-05T04:31:49.602Z,14.17
2019-02-05T04:34:36.033Z,15.70
2019-02-05T04:37:25.091Z,13.37
2019-02-05T04:39:59.355Z,13.93
2019-02-05T04:42:46.381Z,14.37
2019-02-05T04:45:38.629Z,15.50
2019-02-05T04:48:12.365Z,14.13
2019-02-05T04:50:46.433Z,10.27
2019-02-05T04:53:20.288Z,18.53
2019-02-05T04:56:12.158Z,17.20
2019-02-05T04:59:08.685Z,15.67
2019-02-05T05:01:49.345Z,17.30
2019-02-05T05:04:20.946Z,17.83
2019-02-05T05:06:58.071Z,17.80
2019-02-05T05:09:29.549Z,16.83
2019-02-05T05:11:59.326Z,14.90
2019-02-05T05:14:29.110Z,15.63
2019-02-05T05:17:00.441Z,15.80
2019-02-05T05:19:30.334Z,17.60
2019-02-05T05:22:00.213Z,17.13
2019-02-05T05:24:30.398Z,12.47
2019-02-05T05:27:02.045Z,18.13
2019-02-05T05:29:34.891Z,27.53
2019-02-05T05:32:05.316Z,18.57
2019-02-05T05:34:37.145Z,19.83
2019-02-05T05:37:07.425Z,17.70
2019-02-05T05:39:38.599Z,18.53
2019-02-05T05:42:10.377Z,14.30
2019-02-05T05:44:41.125Z,14.57
2019-02-05T05:47:12.188Z,17.40
2019-02-05T05:49:44.877Z,18.97
2019-02-05T05:52:14.686Z,15.67
2019-02-05T05:54:45.310Z,20.10
2019-02-05T05:57:18.696Z,15.37
2019-02-05T05:59:48.655Z,18.13
2019-02-05T06:02:19.977Z,20.50
2019-02-05T06:04:52.021Z,20.10
2019-02-05T06:07:23.627Z,25.07
2019-02-05T06:09:55.474Z,20.37
2019-02-05T06:12:26.517Z,26.27
2019-02-05T06:14:58.208Z,20.13
2019-02-05T06:17:27.872Z,24.40
2019-02-05T06:19:59.628Z,22.00
2019-02-05T06:22:30.260Z,26.37
2019-02-05T06:25:01.795Z,26.80
2019-02-05T06:27:31.633Z,25.77
2019-02-05T06:30:02.765Z,71.77
2019-02-05T06:32:35.796Z,25.13
2019-02-05T06:35:10.275Z,25.97
2019-02-05T06:37:41.542Z,238.13
2019-02-05T06:40:15.925Z,274.97
2019-02-05T06:42:46.722Z,313.73
2019-02-05T06:45:18.545Z,25.83
2019-02-05T06:47:48.264Z,21.40
2019-02-05T06:50:19.696Z,27.37
2019-02-05T06:52:49.799Z,24.83
2019-02-05T06:55:19.591Z,24.70
2019-02-05T06:57:50.194Z,23.87
2019-02-05T07:00:23.598Z,25.63
2019-02-05T07:02:55.066Z,32.23
2019-02-05T07:05:25.906Z,30.70
2019-02-05T07:07:57.369Z,27.17
2019-02-05T07:10:28.641Z,21.13
2019-02-05T07:13:01.547Z,24.10
2019-02-05T07:15:32.365Z,24.57
2019-02-05T07:18:03.086Z,28.17
2019-02-05T07:20:35.737Z,27.60
2019-02-05T07:23:07.086Z,21.60
2019-02-05T07:25:36.982Z,28.50
2019-02-05T07:28:06.757Z,30.63
2019-02-05T07:30:38.656Z,31.97
2019-02-05T07:33:09.442Z,31.63
2019-02-05T07:35:40.585Z,28.23
2019-02-05T07:38:10.676Z,31.47
2019-02-05T07:40:41.538Z,32.60
2019-02-05T07:43:11.470Z,33.10
2019-02-05T07:45:42.253Z,31.73
2019-02-05T07:48:13.537Z,30.60
2019-02-05T07:50:44.674Z,32.77
2019-02-05T07:53:15.421Z,30.40
2019-02-05T07:55:46.390Z,31.77
2019-02-05T07:58:18.341Z,20.57
2019-02-05T08:00:50.685Z,33.33
2019-02-05T08:03:21.537Z,26.80
2019-02-05T08:05:52.589Z,29.63
2019-02-05T08:08:23.716Z,34.60
2019-02-05T08:10:54.531Z,26.23
2019-02-05T08:13:25.239Z,35.50
2019-02-05T08:15:55.949Z,29.83
2019-02-05T08:18:26.979Z,29.73
2019-02-05T08:20:57.743Z,33.93
2019-02-05T08:23:28.965Z,31.60
2019-02-05T08:25:58.870Z,28.93
2019-02-05T08:28:40.619Z,30.47
2019-02-05T08:31:04.471Z,27.33
2019-02-05T08:33:35.408Z,28.17
2019-02-05T08:36:07.381Z,30.93
2019-02-05T08:38:37.539Z,38.37
2019-02-05T08:41:07.763Z,33.70
2019-02-05T08:43:38.510Z,38.83
2019-02-05T08:46:09.181Z,33.17
2019-02-05T08:48:40.197Z,32.33
2019-02-05T08:51:11.690Z,30.50
2019-02-05T08:53:41.046Z,30.03
2019-02-05T08:56:11.322Z,33.63
2019-02-05T08:58:43.283Z,31.37
2019-02-05T09:01:14.514Z,37.07
2019-02-05T09:03:44.426Z,38.87
2019-02-05T09:06:15.961Z,36.63
2019-02-05T09:08:47.112Z,29.97
2019-02-05T09:11:19.745Z,44.67
2019-02-05T09:13:50.431Z,33.40
2019-02-05T09:16:20.218Z,32.00
2019-02-05T09:18:50.961Z,35.83
2019-02-05T09:21:21.948Z,30.57
2019-02-05T09:23:54.493Z,34.80
2019-02-05T09:26:24.545Z,28.50
2019-02-05T09:28:54.440Z,29.63
2019-02-05T09:31:25.449Z,29.03
2019-02-05T09:33:55.641Z,25.97
2019-02-05T09:36:28.033Z,30.43
2019-02-05T09:39:00.594Z,29.37
2019-02-05T09:41:31.247Z,26.97
2019-02-05T09:44:02.129Z,29.63
2019-02-05T09:46:32.878Z,24.10
2019-02-05T09:49:03.950Z,28.97
2019-02-05T09:51:34.490Z,27.20
2019-02-05T09:54:05.265Z,26.40
2019-02-05T09:56:35.927Z,28.07
2019-02-05T09:59:07.502Z,26.73
2019-02-05T10:01:38.202Z,27.30
2019-02-05T10:04:08.170Z,27.33
2019-02-05T10:06:40.562Z,28.73
2019-02-05T10:09:13.963Z,26.77
2019-02-05T10:11:44.489Z,29.80
2019-02-05T10:14:15.226Z,25.37
2019-02-05T10:16:45.085Z,25.60
2019-02-05T10:19:17.061Z,26.13
2019-02-05T10:21:48.013Z,30.97
2019-02-05T10:24:19.062Z,29.73
2019-02-05T10:26:49.025Z,32.47
2019-02-05T10:29:19.837Z,29.27
2019-02-05T10:31:50.849Z,29.27
2019-02-05T10:34:33.602Z,37.70
2019-02-05T10:36:55.893Z,28.97
2019-02-05T10:39:27.370Z,29.83
2019-02-05T10:41:58.465Z,26.87
2019-02-05T10:44:30.181Z,30.87
2019-02-05T10:47:02.106Z,27.27
2019-02-05T10:49:33.349Z,30.23
2019-02-05T10:52:03.225Z,29.10
2019-02-05T10:54:35.456Z,26.30
2019-02-05T10:57:08.238Z,27.40
2019-02-05T10:59:39.527Z,28.70
2019-02-05T11:02:12.677Z,32.90
2019-02-05T11:04:43.481Z,32.37
2019-02-05T11:07:14.105Z,29.07
2019-02-05T11:09:45.121Z,30.10
2019-02-05T11:12:15.951Z,26.97
2019-02-05T11:14:49.290Z,29.73
2019-02-05T11:17:19.183Z,33.30
2019-02-05T11:19:48.906Z,28.03
2019-02-05T11:22:18.141Z,29.53
2019-02-05T11:24:49.659Z,24.13
2019-02-05T11:27:22.131Z,26.77
2019-02-05T11:29:52.894Z,31.00
2019-02-05T11:32:23.877Z,27.40
2019-02-05T11:34:54.094Z,26.73
2019-02-05T11:37:25.250Z,31.23
2019-02-05T11:39:55.124Z,28.23
2019-02-05T11:42:24.969Z,27.40
2019-02-05T11:44:57.325Z,30.50
2019-02-05T11:47:26.976Z,30.13
2019-02-05T11:49:58.915Z,32.60
2019-02-05T11:52:28.605Z,26.77
2019-02-05T11:55:00.520Z,27.53
2019-02-05T11:57:31.537Z,26.30
2019-02-05T12:00:01.293Z,29.50
2019-02-05T12:02:31.073Z,29.33
2019-02-05T12:05:01.815Z,30.50
2019-02-05T12:07:33.677Z,32.00
2019-02-05T12:10:07.693Z,32.43
2019-02-05T12:12:40.393Z,30.77
2019-02-05T12:15:12.529Z,29.97
2019-02-05T12:17:45.227Z,27.00
2019-02-05T12:20:15.845Z,28.80
2019-02-05T12:22:47.154Z,31.33
2019-02-05T12:25:22.501Z,34.67
2019-02-05T12:27:53.186Z,35.43
2019-02-05T12:30:29.992Z,34.47
2019-02-05T12:33:02.101Z,31.73
2019-02-05T12:35:33.194Z,34.80
2019-02-05T12:38:04.024Z,36.67
2019-02-05T12:40:33.089Z,29.83
2019-02-05T12:43:04.201Z,27.77
2019-02-05T12:45:37.305Z,35.10
2019-02-05T12:48:07.334Z,25.77
2019-02-05T12:50:39.239Z,27.10
2019-02-05T12:53:10.098Z,26.70
2019-02-05T12:55:41.858Z,26.73
2019-02-05T12:58:12.046Z,22.57
2019-02-05T13:00:56.693Z,27.00
2019-02-05T13:03:17.265Z,28.47
2019-02-05T13:05:48.523Z,26.20
2019-02-05T13:08:19.329Z,28.53
2019-02-05T13:10:50.255Z,27.13
2019-02-05T13:13:21.986Z,26.53
2019-02-05T13:15:52.937Z,29.70
2019-02-05T13:18:25.258Z,27.03
2019-02-05T13:20:55.213Z,28.30
2019-02-05T13:23:24.913Z,30.00
2019-02-05T13:25:55.805Z,26.70
2019-02-05T13:28:26.421Z,32.60
2019-02-05T13:31:07.654Z,28.57
2019-02-05T13:33:33.963Z,27.93
2019-02-05T13:36:04.965Z,29.00
2019-02-05T13:38:35.460Z,28.77
2019-02-05T13:41:05.861Z,27.83
2019-02-05T13:43:38.294Z,27.73
2019-02-05T13:46:09.520Z,29.83
2019-02-05T13:48:40.333Z,26.50
2019-02-05T13:51:10.980Z,28.03
2019-02-05T13:53:40.723Z,28.20
2019-02-05T13:56:10.433Z,28.03
2019-02-05T13:58:40.198Z,27.67
2019-02-05T14:01:19.727Z,26.17
2019-02-05T14:03:43.243Z,28.57
2019-02-05T14:06:14.866Z,32.47
2019-02-05T14:08:46.422Z,26.13
2019-02-05T14:11:18.098Z,27.70
2019-02-05T14:13:51.159Z,27.53
2019-02-05T14:16:21.164Z,26.93
2019-02-05T14:18:55.454Z,26.40
2019-02-05T14:21:23.082Z,25.30
2019-02-05T14:23:55.489Z,25.17
2019-02-05T14:26:26.233Z,25.17
2019-02-05T14:28:59.634Z,28.13
2019-02-05T14:31:32.495Z,26.87
2019-02-05T14:34:03.200Z,25.13
2019-02-05T14:36:33.690Z,28.00
2019-02-05T14:39:05.441Z,28.40
2019-02-05T14:41:36.191Z,28.93
2019-02-05T14:44:05.969Z,27.83
2019-02-05T14:46:37.763Z,26.63
2019-02-05T14:49:09.806Z,22.20
2019-02-05T14:51:39.914Z,24.70
2019-02-05T14:54:09.781Z,26.67
2019-02-05T14:56:41.979Z,26.97
2019-02-05T14:59:12.146Z,23.43
2019-02-05T15:01:43.551Z,27.10
2019-02-05T15:04:13.801Z,22.10
2019-02-05T15:06:45.338Z,23.80
2019-02-05T15:09:16.408Z,23.60
2019-02-05T15:11:48.445Z,24.87
2019-02-05T15:14:19.617Z,24.47
2019-02-05T15:16:51.466Z,25.07
2019-02-05T15:19:21.253Z,23.17
2019-02-05T15:22:12.059Z,23.90
2019-02-05T15:24:43.462Z,48.20
2019-02-05T15:27:14.335Z,22.37
2019-02-05T15:29:45.240Z,23.23
2019-02-05T15:32:17.094Z,22.17
2019-02-05T15:34:47.281Z,22.33
2019-02-05T15:37:17.504Z,24.50
2019-02-05T15:39:50.414Z,24.20
2019-02-05T15:42:22.188Z,21.13
2019-02-05T15:44:53.866Z,21.90
2019-02-05T15:47:26.287Z,20.80
2019-02-05T15:50:05.906Z,22.00
2019-02-05T15:52:28.802Z,19.93
2019-02-05T15:55:00.381Z,19.23
2019-02-05T15:57:31.319Z,19.50
2019-02-05T16:00:03.041Z,18.87
2019-02-05T16:02:34.189Z,20.37
2019-02-05T16:05:05.771Z,19.07
2019-02-05T16:07:36.749Z,18.80
2019-02-05T16:10:11.894Z,21.00
2019-02-05T16:12:42.634Z,20.33
2019-02-05T16:15:13.290Z,21.27
2019-02-05T16:17:43.213Z,19.33
2019-02-05T16:20:14.133Z,18.80
2019-02-05T16:22:43.921Z,18.23
2019-02-05T16:25:14.857Z,20.27
2019-02-05T16:27:49.234Z,18.77
2019-02-05T16:30:19.825Z,17.42
2019-02-05T16:32:50.541Z,18.77
2019-02-05T16:35:22.123Z,42.10
2019-02-05T16:37:53.472Z,20.80
2019-02-05T16:40:41.372Z,20.80
2019-02-05T16:43:13.297Z,17.67
2019-02-05T16:45:42.994Z,17.13
2019-02-05T16:48:13.945Z,18.97
2019-02-05T16:50:46.281Z,16.57
2019-02-05T16:53:17.313Z,18.70
2019-02-05T16:55:49.915Z,15.47
2019-02-05T16:58:23.983Z,17.63
2019-02-05T17:00:56.106Z,19.47
2019-02-05T17:03:26.010Z,16.27
2019-02-05T17:05:56.419Z,17.47
2019-02-05T17:08:27.058Z,17.07
2019-02-05T17:11:00.253Z,19.93
2019-02-05T17:13:31.380Z,23.37
2019-02-05T17:16:03.086Z,21.23
2019-02-05T17:18:33.072Z,26.57
2019-02-05T17:21:04.067Z,21.60
2019-02-05T17:23:33.966Z,20.20
2019-02-05T17:26:05.750Z,69.80
2019-02-05T17:28:35.810Z,34.27
2019-02-05T17:31:06.005Z,22.70
2019-02-05T17:33:36.783Z,21.53
2019-02-05T17:36:07.550Z,20.47
2019-02-05T17:38:36.833Z,24.93
2019-02-05T17:41:07.531Z,24.20
2019-02-05T17:43:38.449Z,23.40
2019-02-05T17:46:08.757Z,28.37
2019-02-05T17:48:39.912Z,22.53
2019-02-05T17:51:11.228Z,26.60
2019-02-05T17:53:42.933Z,23.73
2019-02-05T17:56:14.386Z,23.33
2019-02-05T17:58:45.168Z,22.57
2019-02-05T18:01:16.171Z,26.03
2019-02-05T18:03:46.061Z,24.53
2019-02-05T18:06:17.032Z,24.63
2019-02-05T18:08:47.201Z,22.87
2019-02-05T18:11:19.304Z,26.07
2019-02-05T18:13:50.105Z,22.23
2019-02-05T18:16:21.162Z,22.93
2019-02-05T18:18:52.941Z,24.37
2019-02-05T18:21:22.703Z,23.83
2019-02-05T18:23:54.441Z,17.10
2019-02-05T18:26:25.393Z,26.90
2019-02-05T18:28:56.130Z,24.03
2019-02-05T18:31:26.917Z,29.70
2019-02-05T18:33:58.038Z,28.07
2019-02-05T18:36:30.110Z,28.90
2019-02-05T18:39:01.560Z,24.57
2019-02-05T18:41:31.467Z,24.23
2019-02-05T18:44:02.009Z,25.07
2019-02-05T18:46:32.695Z,25.03
2019-02-05T18:49:04.995Z,24.77
2019-02-05T18:51:33.933Z,23.53
2019-02-05T18:54:04.675Z,22.33
2019-02-05T18:56:36.437Z,21.57
2019-02-05T18:59:06.188Z,25.57
2019-02-05T19:01:35.984Z,21.90
2019-02-05T19:04:07.345Z,19.47
2019-02-05T19:06:37.271Z,21.53
2019-02-05T19:09:10.731Z,20.17
2019-02-05T19:11:41.401Z,24.27
2019-02-05T19:14:13.874Z,23.03
2019-02-05T19:16:44.559Z,18.33
2019-02-05T19:19:15.499Z,20.40
2019-02-05T19:21:46.524Z,19.77
2019-02-05T19:24:18.862Z,21.77
2019-02-05T19:26:48.893Z,22.90
2019-02-05T19:29:20.053Z,19.67
2019-02-05T19:31:50.655Z,20.40
2019-02-05T19:34:22.742Z,17.17
2019-02-05T19:36:53.425Z,18.93
2019-02-05T19:39:24.466Z,19.27
2019-02-05T19:41:55.599Z,21.33
2019-02-05T19:44:27.414Z,19.43
2019-02-05T19:46:59.234Z,21.90
2019-02-05T19:49:30.523Z,18.77
2019-02-05T19:52:02.240Z,17.80
2019-02-05T19:54:33.308Z,22.07
2019-02-05T19:57:06.089Z,21.93
2019-02-05T19:59:36.200Z,18.83
2019-02-05T20:02:06.720Z,17.87
2019-02-05T20:04:37.618Z,19.27
2019-02-05T20:07:10.008Z,14.03
2019-02-05T20:09:40.654Z,20.47
2019-02-05T20:12:10.413Z,21.93
2019-02-05T20:14:41.125Z,18.67
2019-02-05T20:17:12.922Z,21.73
2019-02-05T20:19:43.643Z,19.17
2019-02-05T20:22:14.322Z,18.83
2019-02-05T20:24:44.030Z,20.00
2019-02-05T20:27:16.486Z,19.87
2019-02-05T20:29:46.597Z,20.57
2019-02-05T20:32:16.398Z,16.60
2019-02-05T20:34:47.057Z,21.27
2019-02-05T20:37:18.736Z,21.13
2019-02-05T20:39:49.550Z,20.57
2019-02-05T20:42:19.309Z,19.60
2019-02-05T20:44:50.172Z,20.00
2019-02-05T20:47:19.885Z,20.03
2019-02-05T20:49:49.634Z,21.20
2019-02-05T20:52:22.061Z,24.83
2019-02-05T20:54:53.041Z,23.83
2019-02-05T20:57:24.163Z,20.77
2019-02-05T20:59:55.534Z,32.00
2019-02-05T21:02:26.252Z,23.00
2019-02-05T21:04:57.303Z,20.47
2019-02-05T21:07:28.101Z,21.23
2019-02-05T21:09:59.168Z,22.87
2019-02-05T21:12:31.627Z,14.53
2019-02-05T21:15:02.416Z,21.90
2019-02-05T21:17:34.117Z,21.93
2019-02-05T21:20:08.774Z,21.00
2019-02-05T21:22:39.621Z,23.93
2019-02-05T21:25:15.271Z,20.40
2019-02-05T21:27:45.951Z,22.40
2019-02-05T21:30:22.771Z,19.43
2019-02-05T21:32:53.826Z,18.47
2019-02-05T21:35:24.719Z,23.23
2019-02-05T21:37:54.695Z,58.07
2019-02-05T21:40:26.031Z,24.03
2019-02-05T21:42:57.198Z,23.57
2019-02-05T21:45:35.019Z,23.17
2019-02-05T21:48:05.344Z,23.40
2019-02-05T21:50:35.285Z,20.83
2019-02-05T21:53:06.105Z,24.50
2019-02-05T21:55:36.781Z,26.93
2019-02-05T21:58:07.486Z,20.30
2019-02-05T22:00:38.266Z,20.07
2019-02-05T22:03:08.955Z,22.90
2019-02-05T22:05:38.806Z,21.87
2019-02-05T22:08:09.912Z,21.57
2019-02-05T22:10:44.101Z,18.80
2019-02-05T22:13:14.362Z,19.43
2019-02-05T22:15:44.516Z,22.37
2019-02-05T22:18:15.291Z,17.13
2019-02-05T22:20:45.377Z,19.83
2019-02-05T22:23:16.537Z,20.43
2019-02-05T22:25:45.526Z,20.20
2019-02-05T22:28:16.648Z,20.33
2019-02-05T22:30:46.906Z,17.53
2019-02-05T22:33:17.008Z,18.27
2019-02-05T22:35:46.683Z,25.10
2019-02-05T22:38:19.095Z,21.53
2019-02-05T22:40:49.194Z,21.07
2019-02-05T22:43:22.029Z,20.80
2019-02-05T22:45:51.845Z,20.33
2019-02-05T22:48:22.570Z,16.63
2019-02-05T22:50:52.553Z,23.03
2019-02-05T22:53:25.101Z,23.67
2019-02-05T22:55:55.712Z,20.47
2019-02-05T22:58:26.803Z,21.67
2019-02-05T23:01:02.637Z,20.53
2019-02-05T23:03:46.333Z,23.53
2019-02-05T23:06:24.780Z,90.87
2019-02-05T23:08:57.441Z,24.37
2019-02-05T23:11:45.085Z,24.67
2019-02-05T23:14:15.177Z,22.03
2019-02-05T23:16:46.356Z,17.03
2019-02-05T23:19:16.617Z,22.27
2019-02-05T23:21:46.518Z,21.00
2019-02-05T23:24:16.189Z,20.17
2019-02-05T23:26:46.934Z,20.30
2019-02-05T23:29:18.554Z,22.33
2019-02-05T23:31:49.609Z,19.23
2019-02-05T23:34:21.130Z,19.80
2019-02-05T23:36:52.205Z,19.73
2019-02-05T23:39:22.094Z,17.97
2019-02-05T23:41:53.713Z,20.87
2019-02-05T23:44:24.780Z,17.43
2019-02-05T23:46:56.012Z,19.97
2019-02-05T23:49:25.885Z,20.30
2019-02-05T23:51:57.461Z,19.30
2019-02-05T23:54:27.210Z,18.93
2019-02-05T23:56:59.077Z,14.60
2019-02-05T23:59:30.205Z,22.20
